sensor_id;sensor_type;location;lat;lon;timestamp;pressure;altitude;pressure_sealevel;temperature;humidity
45253;BME280;63171;50.520;30.486;2023-04-30T00:02:47;99998.06;;;11.10;45.22
45253;BME280;63171;50.520;30.486;2023-04-30T00:03:38;99998.72;;;11.14;45.17
45253;BME280;63171;50.520;30.486;2023-04-30T00:04:27;99989.91;;;11.15;45.44
45253;BME280;63171;50.520;30.486;2023-04-30T00:05:17;99988.88;;;11.17;45.31
45253;BME280;63171;50.520;30.486;2023-04-30T00:06:08;99994.22;;;11.16;45.32
45253;BME280;63171;50.520;30.486;2023-04-30T00:06:58;100004.06;;;11.12;45.25
45253;BME280;63171;50.520;30.486;2023-04-30T00:07:49;100000.13;;;11.05;45.37
45253;BME280;63171;50.520;30.486;2023-04-30T00:08:39;99997.28;;;11.08;45.45
45253;BME280;63171;50.520;30.486;2023-04-30T00:09:31;99994.41;;;11.13;45.56
45253;BME280;63171;50.520;30.486;2023-04-30T00:10:21;100003.41;;;11.09;45.40
45253;BME280;63171;50.520;30.486;2023-04-30T00:11:12;100001.34;;;11.00;45.60
45253;BME280;63171;50.520;30.486;2023-04-30T00:12:02;100001.06;;;11.04;45.43
45253;BME280;63171;50.520;30.486;2023-04-30T00:12:53;100002.53;;;11.08;45.55
45253;BME280;63171;50.520;30.486;2023-04-30T00:13:42;99997.69;;;11.02;45.50
45253;BME280;63171;50.520;30.486;2023-04-30T00:14:33;100002.09;;;11.02;45.99
45253;BME280;63171;50.520;30.486;2023-04-30T00:15:23;99995.63;;;11.07;45.70
45253;BME280;63171;50.520;30.486;2023-04-30T00:16:14;99991.06;;;11.11;45.68
45253;BME280;63171;50.520;30.486;2023-04-30T00:17:04;99998.91;;;11.11;45.66
45253;BME280;63171;50.520;30.486;2023-04-30T00:17:55;99992.00;;;11.10;45.78
45253;BME280;63171;50.520;30.486;2023-04-30T00:18:45;99985.81;;;11.11;45.91
45253;BME280;63171;50.520;30.486;2023-04-30T00:19:36;99989.19;;;10.99;45.76
45253;BME280;63171;50.520;30.486;2023-04-30T00:20:26;99989.63;;;11.05;45.84
45253;BME280;63171;50.520;30.486;2023-04-30T00:21:17;99978.31;;;11.05;45.85
45253;BME280;63171;50.520;30.486;2023-04-30T00:22:07;99985.44;;;11.03;45.97
45253;BME280;63171;50.520;30.486;2023-04-30T00:22:58;99978.22;;;10.92;45.91
45253;BME280;63171;50.520;30.486;2023-04-30T00:23:48;99977.38;;;10.91;46.05
45253;BME280;63171;50.520;30.486;2023-04-30T00:24:40;99973.66;;;10.95;46.08
45253;BME280;63171;50.520;30.486;2023-04-30T00:25:30;99977.88;;;10.98;45.98
45253;BME280;63171;50.520;30.486;2023-04-30T00:26:21;99975.88;;;11.02;46.02
45253;BME280;63171;50.520;30.486;2023-04-30T00:27:12;99973.91;;;11.05;46.35
45253;BME280;63171;50.520;30.486;2023-04-30T00:28:03;99972.88;;;11.08;46.16
45253;BME280;63171;50.520;30.486;2023-04-30T00:28:53;99965.59;;;10.99;46.11
45253;BME280;63171;50.520;30.486;2023-04-30T00:29:43;99969.81;;;11.01;46.15
45253;BME280;63171;50.520;30.486;2023-04-30T00:30:33;99970.75;;;11.00;46.06
45253;BME280;63171;50.520;30.486;2023-04-30T00:31:24;99973.06;;;11.05;46.12
45253;BME280;63171;50.520;30.486;2023-04-30T00:32:14;99965.09;;;11.06;46.40
45253;BME280;63171;50.520;30.486;2023-04-30T00:33:04;99970.44;;;11.05;46.43
45253;BME280;63171;50.520;30.486;2023-04-30T00:33:54;99973.06;;;11.05;46.21
45253;BME280;63171;50.520;30.486;2023-04-30T00:34:45;99967.09;;;11.03;46.61
45253;BME280;63171;50.520;30.486;2023-04-30T00:35:35;99964.66;;;11.00;46.39
45253;BME280;63171;50.520;30.486;2023-04-30T00:36:26;99970.00;;;10.98;46.36
45253;BME280;63171;50.520;30.486;2023-04-30T00:37:16;99965.50;;;11.00;46.42
45253;BME280;63171;50.520;30.486;2023-04-30T00:38:07;99962.59;;;10.90;46.36
45253;BME280;63171;50.520;30.486;2023-04-30T00:38:57;99971.03;;;10.81;46.48
45253;BME280;63171;50.520;30.486;2023-04-30T00:39:49;99968.97;;;10.86;46.32
45253;BME280;63171;50.520;30.486;2023-04-30T00:40:39;99969.81;;;10.87;46.51
45253;BME280;63171;50.520;30.486;2023-04-30T00:41:32;99960.28;;;10.86;46.67
45253;BME280;63171;50.520;30.486;2023-04-30T00:42:23;99957.91;;;10.81;46.57
45253;BME280;63171;50.520;30.486;2023-04-30T00:43:14;99960.72;;;10.78;46.74
45253;BME280;63171;50.520;30.486;2023-04-30T00:44:04;99959.63;;;10.82;46.66
45253;BME280;63171;50.520;30.486;2023-04-30T00:44:54;99955.13;;;10.84;46.76
45253;BME280;63171;50.520;30.486;2023-04-30T00:45:44;99958.78;;;10.82;46.96
45253;BME280;63171;50.520;30.486;2023-04-30T00:46:35;99951.00;;;10.80;46.74
45253;BME280;63171;50.520;30.486;2023-04-30T00:47:26;99957.75;;;10.84;46.83
45253;BME280;63171;50.520;30.486;2023-04-30T00:48:17;99963.00;;;10.84;46.65
45253;BME280;63171;50.520;30.486;2023-04-30T00:49:07;99958.59;;;10.85;46.87
45253;BME280;63171;50.520;30.486;2023-04-30T00:49:58;99958.78;;;10.82;46.82
45253;BME280;63171;50.520;30.486;2023-04-30T00:50:48;99957.84;;;10.83;46.77
45253;BME280;63171;50.520;30.486;2023-04-30T00:51:39;99957.75;;;10.84;46.95
45253;BME280;63171;50.520;30.486;2023-04-30T00:52:30;99953.56;;;10.82;46.66
45253;BME280;63171;50.520;30.486;2023-04-30T00:53:21;99946.53;;;10.82;46.59
45253;BME280;63171;50.520;30.486;2023-04-30T00:54:11;99947.53;;;10.80;46.77
45253;BME280;63171;50.520;30.486;2023-04-30T00:55:04;99940.53;;;10.80;46.80
45253;BME280;63171;50.520;30.486;2023-04-30T00:55:55;99950.06;;;10.81;46.76
45253;BME280;63171;50.520;30.486;2023-04-30T00:56:46;99948.38;;;10.80;46.81
45253;BME280;63171;50.520;30.486;2023-04-30T00:57:37;99947.84;;;10.75;46.65
45253;BME280;63171;50.520;30.486;2023-04-30T00:58:28;99942.41;;;10.78;46.65
45253;BME280;63171;50.520;30.486;2023-04-30T00:59:18;99944.66;;;10.70;46.76
45253;BME280;63171;50.520;30.486;2023-04-30T01:00:10;99935.97;;;10.70;46.72
45253;BME280;63171;50.520;30.486;2023-04-30T01:01:00;99945.59;;;10.69;46.81
45253;BME280;63171;50.520;30.486;2023-04-30T01:01:51;99942.22;;;10.67;46.78
45253;BME280;63171;50.520;30.486;2023-04-30T01:02:42;99938.41;;;10.73;46.85
45253;BME280;63171;50.520;30.486;2023-04-30T01:03:34;99942.31;;;10.65;46.92
45253;BME280;63171;50.520;30.486;2023-04-30T01:04:24;99936.91;;;10.69;46.85
45253;BME280;63171;50.520;30.486;2023-04-30T01:05:16;99944.56;;;10.72;47.16
45253;BME280;63171;50.520;30.486;2023-04-30T01:06:06;99945.31;;;10.74;47.09
45253;BME280;63171;50.520;30.486;2023-04-30T01:06:56;99934.75;;;10.75;46.98
45253;BME280;63171;50.520;30.486;2023-04-30T01:07:46;99938.28;;;10.74;47.08
45253;BME280;63171;50.520;30.486;2023-04-30T01:08:37;99935.13;;;10.69;46.85
45253;BME280;63171;50.520;30.486;2023-04-30T01:09:27;99937.66;;;10.71;47.17
45253;BME280;63171;50.520;30.486;2023-04-30T01:10:21;99940.44;;;10.68;47.07
45253;BME280;63171;50.520;30.486;2023-04-30T01:11:18;99943.25;;;10.64;47.15
45253;BME280;63171;50.520;30.486;2023-04-30T01:12:16;99945.13;;;10.62;46.84
45253;BME280;63171;50.520;30.486;2023-04-30T01:13:12;99938.75;;;10.66;47.28
45253;BME280;63171;50.520;30.486;2023-04-30T01:14:11;99939.69;;;10.65;47.38
45253;BME280;63171;50.520;30.486;2023-04-30T01:15:07;99938.94;;;10.63;47.38
45253;BME280;63171;50.520;30.486;2023-04-30T01:16:06;99940.91;;;10.60;47.28
45253;BME280;63171;50.520;30.486;2023-04-30T01:17:02;99938.09;;;10.63;47.42
45253;BME280;63171;50.520;30.486;2023-04-30T01:17:59;99938.84;;;10.65;47.42
45253;BME280;63171;50.520;30.486;2023-04-30T01:18:56;99938.75;;;10.66;47.36
45253;BME280;63171;50.520;30.486;2023-04-30T01:19:48;99938.75;;;10.66;47.53
45253;BME280;63171;50.520;30.486;2023-04-30T01:20:43;99937.81;;;10.68;47.46
45253;BME280;63171;50.520;30.486;2023-04-30T01:21:38;99939.16;;;10.60;47.54
45253;BME280;63171;50.520;30.486;2023-04-30T01:22:40;99938.00;;;10.64;47.54
45253;BME280;63171;50.520;30.486;2023-04-30T01:23:47;99930.53;;;10.58;47.58
45253;BME280;63171;50.520;30.486;2023-04-30T01:24:57;99935.88;;;10.57;47.82
45253;BME280;63171;50.520;30.486;2023-04-30T01:26:09;99937.72;;;10.55;47.70
45253;BME280;63171;50.520;30.486;2023-04-30T01:27:08;99931.47;;;10.57;47.76
45253;BME280;63171;50.520;30.486;2023-04-30T01:28:08;99936.03;;;10.54;47.71
45253;BME280;63171;50.520;30.486;2023-04-30T01:28:59;99937.56;;;10.58;47.79
45253;BME280;63171;50.520;30.486;2023-04-30T01:29:53;99938.50;;;10.57;47.83
45253;BME280;63171;50.520;30.486;2023-04-30T01:30:45;99938.66;;;10.54;47.96
45253;BME280;63171;50.520;30.486;2023-04-30T01:31:36;99935.88;;;10.57;47.80
45253;BME280;63171;50.520;30.486;2023-04-30T01:32:26;99935.50;;;10.49;47.89
45253;BME280;63171;50.520;30.486;2023-04-30T01:33:17;99939.50;;;10.54;48.03
45253;BME280;63171;50.520;30.486;2023-04-30T01:34:07;99938.59;;;10.55;48.02
45253;BME280;63171;50.520;30.486;2023-04-30T01:34:58;99927.25;;;10.55;48.23
45253;BME280;63171;50.520;30.486;2023-04-30T01:37:21;99928.03;;;10.43;48.02
45253;BME280;63171;50.520;30.486;2023-04-30T01:38:22;99927.00;;;10.45;48.10
45253;BME280;63171;50.520;30.486;2023-04-30T01:39:29;99919.88;;;10.47;48.06
45253;BME280;63171;50.520;30.486;2023-04-30T01:40:23;99926.06;;;10.46;48.15
45253;BME280;63171;50.520;30.486;2023-04-30T01:41:27;99919.38;;;10.41;48.15
45253;BME280;63171;50.520;30.486;2023-04-30T01:42:20;99921.09;;;10.42;48.19
45253;BME280;63171;50.520;30.486;2023-04-30T01:43:19;99919.22;;;10.44;48.26
45253;BME280;63171;50.520;30.486;2023-04-30T01:44:25;99919.38;;;10.41;48.27
45253;BME280;63171;50.520;30.486;2023-04-30T01:45:31;99913.31;;;10.40;48.13
45253;BME280;63171;50.520;30.486;2023-04-30T01:46:24;99912.56;;;10.38;48.30
45253;BME280;63171;50.520;30.486;2023-04-30T01:47:23;99916.22;;;10.35;48.38
45253;BME280;63171;50.520;30.486;2023-04-30T01:48:21;99916.31;;;10.34;48.47
45253;BME280;63171;50.520;30.486;2023-04-30T01:49:29;99915.81;;;10.27;48.32
45253;BME280;63171;50.520;30.486;2023-04-30T01:50:27;99914.94;;;10.28;48.48
45253;BME280;63171;50.520;30.486;2023-04-30T01:51:31;99913.06;;;10.30;48.55
45253;BME280;63171;50.520;30.486;2023-04-30T01:52:28;99918.28;;;10.30;48.59
45253;BME280;63171;50.520;30.486;2023-04-30T01:53:28;99911.72;;;10.23;48.58
45253;BME280;63171;50.520;30.486;2023-04-30T01:54:24;99912.81;;;10.19;48.50
45253;BME280;63171;50.520;30.486;2023-04-30T01:55:20;99911.72;;;10.23;48.65
45253;BME280;63171;50.520;30.486;2023-04-30T01:56:17;99907.13;;;10.27;48.68
45253;BME280;63171;50.520;30.486;2023-04-30T01:57:16;99906.50;;;10.23;48.59
45253;BME280;63171;50.520;30.486;2023-04-30T01:58:10;99908.25;;;10.23;48.79
45253;BME280;63171;50.520;30.486;2023-04-30T01:59:03;99913.66;;;10.20;48.76
45253;BME280;63171;50.520;30.486;2023-04-30T01:59:54;99914.50;;;10.20;48.67
45253;BME280;63171;50.520;30.486;2023-04-30T02:00:45;99908.34;;;10.21;48.82
45253;BME280;63171;50.520;30.486;2023-04-30T02:01:35;99908.16;;;10.24;48.86
45253;BME280;63171;50.520;30.486;2023-04-30T02:02:26;99905.47;;;10.26;48.80
45253;BME280;63171;50.520;30.486;2023-04-30T02:03:16;99899.28;;;10.27;48.78
45253;BME280;63171;50.520;30.486;2023-04-30T02:04:07;99902.94;;;10.24;48.92
45253;BME280;63171;50.520;30.486;2023-04-30T02:04:57;99901.91;;;10.27;49.14
45253;BME280;63171;50.520;30.486;2023-04-30T02:05:48;99900.50;;;10.21;48.98
45253;BME280;63171;50.520;30.486;2023-04-30T02:06:39;99906.59;;;10.22;49.09
45253;BME280;63171;50.520;30.486;2023-04-30T02:07:36;99905.75;;;10.21;48.95
45253;BME280;63171;50.520;30.486;2023-04-30T02:08:27;99902.34;;;10.19;49.02
45253;BME280;63171;50.520;30.486;2023-04-30T02:09:18;99896.19;;;10.20;49.19
45253;BME280;63171;50.520;30.486;2023-04-30T02:10:09;99905.06;;;10.18;49.45
45253;BME280;63171;50.520;30.486;2023-04-30T02:11:00;99899.63;;;10.21;49.21
45253;BME280;63171;50.520;30.486;2023-04-30T02:11:50;99896.38;;;10.17;49.34
45253;BME280;63171;50.520;30.486;2023-04-30T02:12:41;99899.09;;;10.16;49.32
45253;BME280;63171;50.520;30.486;2023-04-30T02:13:30;99893.91;;;10.14;49.36
45253;BME280;63171;50.520;30.486;2023-04-30T02:14:23;99900.09;;;10.13;49.54
45253;BME280;63171;50.520;30.486;2023-04-30T02:15:16;99897.47;;;10.13;49.43
45253;BME280;63171;50.520;30.486;2023-04-30T02:16:07;99890.66;;;10.11;49.54
45253;BME280;63171;50.520;30.486;2023-04-30T02:16:56;99895.88;;;10.11;49.65
45253;BME280;63171;50.520;30.486;2023-04-30T02:17:48;99890.94;;;10.06;49.68
45253;BME280;63171;50.520;30.486;2023-04-30T02:18:38;99890.94;;;10.06;49.76
45253;BME280;63171;50.520;30.486;2023-04-30T02:19:28;99889.25;;;10.05;49.58
45253;BME280;63171;50.520;30.486;2023-04-30T02:20:19;99893.44;;;10.07;49.69
45253;BME280;63171;50.520;30.486;2023-04-30T02:21:10;99896.72;;;10.11;49.90
45253;BME280;63171;50.520;30.486;2023-04-30T02:22:00;99894.56;;;10.03;49.66
45253;BME280;63171;50.520;30.486;2023-04-30T02:22:50;99892.59;;;10.07;50.06
45253;BME280;63171;50.520;30.486;2023-04-30T02:23:40;99889.16;;;10.06;50.02
45253;BME280;63171;50.520;30.486;2023-04-30T02:24:31;99888.03;;;10.11;49.95
45253;BME280;63171;50.520;30.486;2023-04-30T02:25:21;99896.81;;;10.10;50.01
45253;BME280;63171;50.520;30.486;2023-04-30T02:26:11;99893.25;;;10.11;50.06
45253;BME280;63171;50.520;30.486;2023-04-30T02:27:02;99898.50;;;10.11;50.02
45253;BME280;63171;50.520;30.486;2023-04-30T02:27:52;99895.13;;;10.08;50.08
45253;BME280;63171;50.520;30.486;2023-04-30T02:28:43;99894.28;;;10.08;50.30
45253;BME280;63171;50.520;30.486;2023-04-30T02:29:34;99893.53;;;10.06;50.15
45253;BME280;63171;50.520;30.486;2023-04-30T02:30:25;99888.50;;;10.03;50.24
45253;BME280;63171;50.520;30.486;2023-04-30T02:31:15;99887.91;;;9.98;50.19
45253;BME280;63171;50.520;30.486;2023-04-30T02:32:08;99895.66;;;9.99;50.42
45253;BME280;63171;50.520;30.486;2023-04-30T02:32:58;99894.72;;;10.00;50.37
45253;BME280;63171;50.520;30.486;2023-04-30T02:33:49;99889.34;;;10.03;50.30
45253;BME280;63171;50.520;30.486;2023-04-30T02:34:39;99891.13;;;10.03;50.31
45253;BME280;63171;50.520;30.486;2023-04-30T02:35:30;99887.66;;;10.02;50.41
45253;BME280;63171;50.520;30.486;2023-04-30T02:36:19;99894.56;;;10.03;50.64
45253;BME280;63171;50.520;30.486;2023-04-30T02:37:10;99889.44;;;10.02;50.45
45253;BME280;63171;50.520;30.486;2023-04-30T02:38:00;99896.50;;;10.00;50.59
45253;BME280;63171;50.520;30.486;2023-04-30T02:38:51;99898.28;;;9.99;50.46
45253;BME280;63171;50.520;30.486;2023-04-30T02:39:40;99904.84;;;9.92;50.48
45253;BME280;63171;50.520;30.486;2023-04-30T02:40:31;99901.19;;;9.95;50.54
45253;BME280;63171;50.520;30.486;2023-04-30T02:41:21;99902.22;;;9.92;50.48
45253;BME280;63171;50.520;30.486;2023-04-30T02:42:12;99903.72;;;9.96;50.58
45253;BME280;63171;50.520;30.486;2023-04-30T02:43:02;99897.72;;;9.94;50.62
45253;BME280;63171;50.520;30.486;2023-04-30T02:43:54;99898.84;;;9.90;50.70
45253;BME280;63171;50.520;30.486;2023-04-30T02:44:46;99904.00;;;9.92;50.71
45253;BME280;63171;50.520;30.486;2023-04-30T02:45:37;99896.88;;;9.94;50.68
45253;BME280;63171;50.520;30.486;2023-04-30T02:46:26;99905.38;;;9.97;50.65
45253;BME280;63171;50.520;30.486;2023-04-30T02:47:17;99896.88;;;9.94;50.76
45253;BME280;63171;50.520;30.486;2023-04-30T02:48:07;99898.56;;;9.95;50.70
45253;BME280;63171;50.520;30.486;2023-04-30T02:48:58;99895.22;;;9.93;50.79
45253;BME280;63171;50.520;30.486;2023-04-30T02:49:48;99901.19;;;9.95;50.85
45253;BME280;63171;50.520;30.486;2023-04-30T02:50:39;99898.75;;;9.92;50.85
45253;BME280;63171;50.520;30.486;2023-04-30T02:51:29;99896.88;;;9.94;50.88
45253;BME280;63171;50.520;30.486;2023-04-30T02:52:21;99898.44;;;9.82;50.81
45253;BME280;63171;50.520;30.486;2023-04-30T02:53:11;99898.25;;;9.85;50.91
45253;BME280;63171;50.520;30.486;2023-04-30T02:54:01;99901.56;;;9.89;50.81
45253;BME280;63171;50.520;30.486;2023-04-30T02:54:51;99893.03;;;9.85;50.80
45253;BME280;63171;50.520;30.486;2023-04-30T02:55:42;99891.91;;;9.75;50.77
45253;BME280;63171;50.520;30.486;2023-04-30T02:56:32;99896.84;;;9.80;50.95
45253;BME280;63171;50.520;30.486;2023-04-30T02:57:24;99895.44;;;9.74;51.00
45253;BME280;63171;50.520;30.486;2023-04-30T02:58:14;99897.19;;;9.73;50.86
45253;BME280;63171;50.520;30.486;2023-04-30T02:59:05;99895.19;;;9.78;51.04
45253;BME280;63171;50.520;30.486;2023-04-30T02:59:56;99897.19;;;9.73;50.97
45253;BME280;63171;50.520;30.486;2023-04-30T03:00:47;99898.34;;;9.84;51.11
45253;BME280;63171;50.520;30.486;2023-04-30T03:01:37;99896.66;;;9.83;51.07
45253;BME280;63171;50.520;30.486;2023-04-30T03:02:28;99898.34;;;9.84;51.07
45253;BME280;63171;50.520;30.486;2023-04-30T03:03:18;99897.69;;;9.80;51.05
45253;BME280;63171;50.520;30.486;2023-04-30T03:04:09;99887.50;;;9.75;51.04
45253;BME280;63171;50.520;30.486;2023-04-30T03:04:59;99894.25;;;9.80;51.25
45253;BME280;63171;50.520;30.486;2023-04-30T03:05:50;99890.50;;;9.84;51.11
45253;BME280;63171;50.520;30.486;2023-04-30T03:06:40;99889.00;;;9.80;51.14
45253;BME280;63171;50.520;30.486;2023-04-30T03:07:30;99888.66;;;9.56;51.17
45253;BME280;63171;50.520;30.486;2023-04-30T03:08:22;99892.78;;;9.60;51.30
45253;BME280;63171;50.520;30.486;2023-04-30T03:09:12;99892.53;;;9.64;51.17
45253;BME280;63171;50.520;30.486;2023-04-30T03:10:04;99884.91;;;9.75;51.43
45253;BME280;63171;50.520;30.486;2023-04-30T03:10:55;99884.31;;;9.70;51.30
45253;BME280;63171;50.520;30.486;2023-04-30T03:11:46;99881.03;;;9.67;51.39
45253;BME280;63171;50.520;30.486;2023-04-30T03:12:36;99878.47;;;9.51;51.41
45253;BME280;63171;50.520;30.486;2023-04-30T03:13:27;99882.41;;;9.58;51.44
45253;BME280;63171;50.520;30.486;2023-04-30T03:14:17;99882.78;;;9.52;51.30
45253;BME280;63171;50.520;30.486;2023-04-30T03:15:09;99887.69;;;9.42;51.36
45253;BME280;63171;50.520;30.486;2023-04-30T03:16:00;99888.56;;;9.57;51.46
45253;BME280;63171;50.520;30.486;2023-04-30T03:16:53;99885.69;;;9.62;51.60
45253;BME280;63171;50.520;30.486;2023-04-30T03:17:42;99888.88;;;9.67;51.82
45253;BME280;63171;50.520;30.486;2023-04-30T03:18:33;99879.16;;;9.69;51.62
45253;BME280;63171;50.520;30.486;2023-04-30T03:19:23;99877.97;;;9.74;51.70
45253;BME280;63171;50.520;30.486;2023-04-30T03:20:14;99880.50;;;9.76;51.70
45253;BME280;63171;50.520;30.486;2023-04-30T03:21:04;99885.56;;;9.79;51.60
45253;BME280;63171;50.520;30.486;2023-04-30T03:21:55;99881.91;;;9.82;51.83
45253;BME280;63171;50.520;30.486;2023-04-30T03:22:44;99884.34;;;9.85;51.56
45253;BME280;63171;50.520;30.486;2023-04-30T03:23:35;99881.81;;;9.83;51.60
45253;BME280;63171;50.520;30.486;2023-04-30T03:24:25;99886.69;;;9.89;51.77
45253;BME280;63171;50.520;30.486;2023-04-30T03:25:16;99878.75;;;9.91;51.76
45253;BME280;63171;50.520;30.486;2023-04-30T03:26:06;99877.09;;;9.90;51.62
45253;BME280;63171;50.520;30.486;2023-04-30T03:26:57;99878.66;;;9.92;51.32
45253;BME280;63171;50.520;30.486;2023-04-30T03:27:47;99882.22;;;9.91;51.68
45253;BME280;63171;50.520;30.486;2023-04-30T03:28:38;99887.78;;;9.85;51.55
45253;BME280;63171;50.520;30.486;2023-04-30T03:29:28;99882.47;;;9.87;51.54
45253;BME280;63171;50.520;30.486;2023-04-30T03:30:20;99884.94;;;9.90;51.54
45253;BME280;63171;50.520;30.486;2023-04-30T03:31:10;99886.03;;;9.86;51.46
45253;BME280;63171;50.520;30.486;2023-04-30T03:32:01;99884.25;;;9.86;51.57
45253;BME280;63171;50.520;30.486;2023-04-30T03:32:50;99884.16;;;9.88;51.64
45253;BME280;63171;50.520;30.486;2023-04-30T03:33:42;99890.81;;;9.93;51.52
45253;BME280;63171;50.520;30.486;2023-04-30T03:34:32;99882.13;;;9.93;51.54
45253;BME280;63171;50.520;30.486;2023-04-30T03:35:23;99881.19;;;9.94;51.44
45253;BME280;63171;50.520;30.486;2023-04-30T03:36:13;99889.03;;;9.94;51.72
45253;BME280;63171;50.520;30.486;2023-04-30T03:37:04;99885.69;;;9.92;51.48
45253;BME280;63171;50.520;30.486;2023-04-30T03:37:54;99880.69;;;9.87;51.55
45253;BME280;63171;50.520;30.486;2023-04-30T03:38:45;99894.72;;;9.86;51.58
45253;BME280;63171;50.520;30.486;2023-04-30T03:39:35;99883.31;;;9.87;51.34
45253;BME280;63171;50.520;30.486;2023-04-30T03:40:25;99889.13;;;9.92;51.65
45253;BME280;63171;50.520;30.486;2023-04-30T03:41:15;99887.63;;;9.88;51.45
45253;BME280;63171;50.520;30.486;2023-04-30T03:42:06;99885.78;;;9.90;51.54
45253;BME280;63171;50.520;30.486;2023-04-30T03:42:56;99894.38;;;9.92;51.59
45253;BME280;63171;50.520;30.486;2023-04-30T03:43:46;99889.22;;;9.91;51.56
45253;BME280;63171;50.520;30.486;2023-04-30T03:44:36;99890.16;;;9.90;51.65
45253;BME280;63171;50.520;30.486;2023-04-30T03:45:28;99890.91;;;9.92;51.49
45253;BME280;63171;50.520;30.486;2023-04-30T03:46:19;99888.09;;;9.95;51.55
45253;BME280;63171;50.520;30.486;2023-04-30T03:47:11;99881.28;;;9.92;51.61
45253;BME280;63171;50.520;30.486;2023-04-30T03:48:00;99881.00;;;9.97;51.49
45253;BME280;63171;50.520;30.486;2023-04-30T03:48:51;99886.41;;;9.94;51.60
45253;BME280;63171;50.520;30.486;2023-04-30T03:49:41;99886.69;;;9.89;51.71
45253;BME280;63171;50.520;30.486;2023-04-30T03:50:32;99881.19;;;9.94;51.75
45253;BME280;63171;50.520;30.486;2023-04-30T03:51:22;99878.47;;;9.95;51.59
45253;BME280;63171;50.520;30.486;2023-04-30T03:52:13;99884.56;;;9.96;51.70
45253;BME280;63171;50.520;30.486;2023-04-30T03:53:03;99877.63;;;9.95;51.86
45253;BME280;63171;50.520;30.486;2023-04-30T03:53:54;99878.47;;;9.95;51.83
45253;BME280;63171;50.520;30.486;2023-04-30T03:54:44;99879.13;;;9.99;51.82
45253;BME280;63171;50.520;30.486;2023-04-30T03:55:36;99877.63;;;9.95;51.79
45253;BME280;63171;50.520;30.486;2023-04-30T03:56:26;99877.44;;;9.98;51.83
45253;BME280;63171;50.520;30.486;2023-04-30T03:57:17;99882.69;;;9.98;51.93
45253;BME280;63171;50.520;30.486;2023-04-30T03:58:07;99876.81;;;9.94;51.75
45253;BME280;63171;50.520;30.486;2023-04-30T03:58:58;99886.53;;;9.92;51.93
45253;BME280;63171;50.520;30.486;2023-04-30T03:59:49;99880.78;;;9.86;51.82
45253;BME280;63171;50.520;30.486;2023-04-30T04:00:42;99884.66;;;9.94;51.78
45253;BME280;63171;50.520;30.486;2023-04-30T04:01:33;99877.81;;;9.92;51.80
45253;BME280;63171;50.520;30.486;2023-04-30T04:02:24;99882.31;;;9.90;51.94
45253;BME280;63171;50.520;30.486;2023-04-30T04:03:14;99877.72;;;9.93;51.89
45253;BME280;63171;50.520;30.486;2023-04-30T04:04:06;99876.31;;;9.88;51.86
45253;BME280;63171;50.520;30.486;2023-04-30T04:04:56;99880.53;;;9.90;51.90
45253;BME280;63171;50.520;30.486;2023-04-30T04:05:47;99881.47;;;9.89;51.84
45253;BME280;63171;50.520;30.486;2023-04-30T04:06:36;99875.22;;;9.92;51.79
45253;BME280;63171;50.520;30.486;2023-04-30T04:07:27;99878.84;;;9.89;52.01
45253;BME280;63171;50.520;30.486;2023-04-30T04:08:19;99884.56;;;9.96;51.95
45253;BME280;63171;50.520;30.486;2023-04-30T04:09:10;99881.59;;;10.02;52.16
45253;BME280;63171;50.520;30.486;2023-04-30T04:10:05;99884.38;;;9.99;52.08
45253;BME280;63171;50.520;30.486;2023-04-30T04:10:56;99879.88;;;10.01;51.90
45253;BME280;63171;50.520;30.486;2023-04-30T04:11:46;99880.66;;;10.03;52.05
45253;BME280;63171;50.520;30.486;2023-04-30T04:12:37;99879.13;;;9.99;52.02
45253;BME280;63171;50.520;30.486;2023-04-30T04:13:27;99886.31;;;9.95;51.96
45253;BME280;63171;50.520;30.486;2023-04-30T04:14:17;99876.59;;;9.97;52.08
45253;BME280;63171;50.520;30.486;2023-04-30T04:15:08;99881.59;;;10.02;52.19
45253;BME280;63171;50.520;30.486;2023-04-30T04:16:01;99880.47;;;10.06;52.25
45253;BME280;63171;50.520;30.486;2023-04-30T04:16:51;99880.38;;;10.07;52.22
45253;BME280;63171;50.520;30.486;2023-04-30T04:17:42;99882.88;;;10.09;52.24
45253;BME280;63171;50.520;30.486;2023-04-30T04:18:33;99877.56;;;10.11;52.18
45253;BME280;63171;50.520;30.486;2023-04-30T04:19:23;99878.19;;;10.00;52.09
45253;BME280;63171;50.520;30.486;2023-04-30T04:20:13;99879.97;;;9.99;52.22
45253;BME280;63171;50.520;30.486;2023-04-30T04:21:05;99875.69;;;9.98;52.30
45253;BME280;63171;50.520;30.486;2023-04-30T04:21:56;99877.63;;;9.95;52.26
45253;BME280;63171;50.520;30.486;2023-04-30T04:22:48;99877.84;;;10.06;52.36
45253;BME280;63171;50.520;30.486;2023-04-30T04:23:37;99876.06;;;10.06;52.40
45253;BME280;63171;50.520;30.486;2023-04-30T04:24:28;99885.50;;;10.09;52.40
45253;BME280;63171;50.520;30.486;2023-04-30T04:25:18;99878.97;;;10.02;52.43
45253;BME280;63171;50.520;30.486;2023-04-30T04:26:13;99878.88;;;10.03;52.33
45253;BME280;63171;50.520;30.486;2023-04-30T04:27:03;99876.16;;;10.05;52.42
45253;BME280;63171;50.520;30.486;2023-04-30T04:27:55;99874.09;;;10.10;52.47
45253;BME280;63171;50.520;30.486;2023-04-30T04:28:45;99879.25;;;10.12;52.42
45253;BME280;63171;50.520;30.486;2023-04-30T04:29:37;99879.16;;;10.13;52.51
45253;BME280;63171;50.520;30.486;2023-04-30T04:30:27;99879.34;;;10.10;52.52
45253;BME280;63171;50.520;30.486;2023-04-30T04:31:20;99876.63;;;10.12;52.96
45253;BME280;63171;50.520;30.486;2023-04-30T04:32:11;99875.03;;;10.09;52.62
45253;BME280;63171;50.520;30.486;2023-04-30T04:33:03;99871.28;;;10.13;52.62
45253;BME280;63171;50.520;30.486;2023-04-30T04:33:54;99883.09;;;10.20;52.59
45253;BME280;63171;50.520;30.486;2023-04-30T04:34:47;99874.59;;;10.17;52.74
45253;BME280;63171;50.520;30.486;2023-04-30T04:35:37;99873.25;;;10.10;52.60